Time;durP1;ratioP1;P1;durP2;ratioP2;P2;SDS_P1;SDS_P2;PMS_P1;PMS_P2;Temp;Humidity;BMP_temperature;BMP_pressure;BME280_temperature;BME280_humidity;BME280_pressure;Samples;Min_cycle;Max_cycle;Signal;HPM_P1;HPM_P2
2023/05/03 00:01:12;;;;;;;9.07;5.00;;;7.00;99.90;;;;;;5024888;28;20025;-81
2023/05/03 00:03:38;;;;;;;11.82;6.20;;;7.00;99.90;;;;;;5021842;28;20041;-81
2023/05/03 00:06:12;;;;;;;11.45;5.65;;;7.00;99.90;;;;;;5018846;28;20034;-81
2023/05/03 00:08:38;;;;;;;8.82;4.45;;;7.00;99.90;;;;;;5023334;28;20041;-82
2023/05/03 00:11:04;;;;;;;9.00;4.72;;;6.90;99.90;;;;;;5022842;28;20367;-81
2023/05/03 00:13:30;;;;;;;8.50;5.00;;;6.90;99.90;;;;;;5021299;28;20021;-81
2023/05/03 00:15:56;;;;;;;8.90;5.35;;;6.90;99.90;;;;;;5022724;28;20056;-84
2023/05/03 00:18:22;;;;;;;10.10;5.82;;;6.90;99.90;;;;;;5018312;28;20034;-80
2023/05/03 00:20:50;;;;;;;12.88;6.05;;;6.90;99.90;;;;;;5025012;28;20040;-81
2023/05/03 00:23:16;;;;;;;8.20;5.85;;;6.90;99.90;;;;;;5034384;28;20102;-81
2023/05/03 00:25:43;;;;;;;12.35;5.90;;;6.80;99.90;;;;;;5031406;28;20045;-81
2023/05/03 00:28:09;;;;;;;8.82;5.28;;;6.70;99.90;;;;;;5028626;28;20377;-81
2023/05/03 00:30:35;;;;;;;11.30;4.85;;;6.70;99.90;;;;;;5017139;28;20040;-82
2023/05/03 00:33:01;;;;;;;9.80;5.18;;;6.70;99.90;;;;;;5025764;28;20041;-81
2023/05/03 00:35:27;;;;;;;8.15;4.88;;;6.70;99.90;;;;;;5025165;28;20038;-82
2023/05/03 00:37:54;;;;;;;8.60;5.20;;;6.70;99.90;;;;;;5025499;28;20032;-81
2023/05/03 00:40:20;;;;;;;10.65;4.97;;;6.60;99.90;;;;;;5038924;28;20402;-81
2023/05/03 00:42:46;;;;;;;7.75;5.03;;;6.60;99.90;;;;;;5025927;28;20041;-80
2023/05/03 00:45:12;;;;;;;9.85;4.93;;;6.50;99.90;;;;;;5021790;28;20378;-81
2023/05/03 00:47:39;;;;;;;10.30;4.97;;;6.50;99.90;;;;;;5020857;28;20435;-81
2023/05/03 00:50:06;;;;;;;9.10;5.35;;;6.40;99.90;;;;;;5025348;28;20038;-81
2023/05/03 00:52:33;;;;;;;10.30;4.88;;;6.30;1.00;;;;;;5025693;28;20048;-81
2023/05/03 00:55:00;;;;;;;6.93;4.32;;;6.20;1.00;;;;;;5025487;28;20042;-82
2023/05/03 00:57:28;;;;;;;12.18;5.72;;;6.30;1.00;;;;;;5017026;28;20056;-82
2023/05/03 00:59:56;;;;;;;10.80;5.45;;;6.20;1.00;;;;;;5024762;28;20030;-81
2023/05/03 01:02:23;;;;;;;9.52;4.40;;;6.10;1.00;;;;;;5021467;28;20029;-83
2023/05/03 01:04:51;;;;;;;11.18;6.30;;;6.10;1.00;;;;;;5020234;28;20026;-81
2023/05/03 01:07:42;;;;;;;11.70;4.70;;;6.00;1.00;;;;;;5028856;28;20022;-81
2023/05/03 01:10:37;;;;;;;11.15;5.75;;;6.10;1.00;;;;;;5044512;28;20042;-81
2023/05/03 01:13:15;;;;;;;9.02;4.65;;;6.00;1.00;;;;;;5026380;28;20053;-81
2023/05/03 01:15:50;;;;;;;11.98;5.20;;;5.90;1.00;;;;;;5025796;28;20040;-81
2023/05/03 01:18:22;;;;;;;8.77;4.47;;;5.90;1.00;;;;;;5026475;28;20045;-80
2023/05/03 01:20:52;;;;;;;10.27;6.20;;;5.90;1.00;;;;;;5031519;28;20041;-82
2023/05/03 01:23:40;;;;;;;12.70;6.00;;;5.80;1.00;;;;;;5027895;28;20044;-80
2023/05/03 01:26:24;;;;;;;9.85;5.57;;;5.70;1.00;;;;;;5032771;28;20048;-80
2023/05/03 01:28:50;;;;;;;11.20;5.80;;;5.60;1.00;;;;;;5023469;28;20045;-81
2023/05/03 01:31:32;;;;;;;14.93;7.28;;;5.60;1.00;;;;;;5043725;28;20034;-81
2023/05/03 01:34:14;;;;;;;14.88;5.57;;;5.50;1.00;;;;;;5020312;28;20409;-81
2023/05/03 01:36:43;;;;;;;13.63;5.57;;;5.50;1.00;;;;;;5028955;28;20045;-81
2023/05/03 01:39:15;;;;;;;14.55;5.85;;;5.50;1.00;;;;;;5028285;28;20037;-81
2023/05/03 01:41:47;;;;;;;10.90;5.45;;;5.50;1.00;;;;;;5028383;28;20463;-81
2023/05/03 01:44:15;;;;;;;10.20;5.95;;;5.50;1.00;;;;;;5037924;28;20041;-81
2023/05/03 01:46:46;;;;;;;9.23;5.22;;;5.40;1.00;;;;;;5025354;28;20450;-81
2023/05/03 01:49:12;;;;;;;11.13;5.40;;;5.40;1.00;;;;;;5040286;28;20367;-81
2023/05/03 01:51:38;;;;;;;10.85;5.80;;;5.40;1.00;;;;;;5025846;28;20029;-81
2023/05/03 01:54:05;;;;;;;10.50;6.15;;;5.30;1.00;;;;;;5025615;28;20398;-81
2023/05/03 01:56:33;;;;;;;12.65;5.60;;;5.40;1.00;;;;;;5024625;28;20120;-81
2023/05/03 01:59:00;;;;;;;12.02;6.25;;;5.30;1.00;;;;;;5041283;28;20046;-81
2023/05/03 02:01:26;;;;;;;11.80;5.50;;;5.30;1.00;;;;;;5029837;28;20029;-81
2023/05/03 02:03:52;;;;;;;12.05;5.63;;;5.20;1.00;;;;;;5021091;28;20044;-81
2023/05/03 02:06:18;;;;;;;11.60;5.80;;;5.20;1.00;;;;;;5040323;28;20033;-81
2023/05/03 02:08:44;;;;;;;12.07;5.72;;;5.10;1.00;;;;;;5031494;28;20044;-81
2023/05/03 02:11:11;;;;;;;18.42;7.22;;;5.10;1.00;;;;;;5031594;28;20061;-81
2023/05/03 02:13:38;;;;;;;14.60;6.40;;;5.00;1.00;;;;;;5027729;28;20033;-81
2023/05/03 02:16:04;;;;;;;11.05;6.03;;;5.00;1.00;;;;;;5024729;28;20038;-81
2023/05/03 02:18:30;;;;;;;12.63;6.28;;;5.00;1.00;;;;;;5019475;28;20549;-81
2023/05/03 02:20:57;;;;;;;9.90;5.60;;;4.90;1.00;;;;;;5019199;28;20045;-81
2023/05/03 02:23:24;;;;;;;24.55;13.93;;;4.90;1.00;;;;;;5024937;28;20034;-81
2023/05/03 02:25:50;;;;;;;17.88;9.52;;;4.90;1.00;;;;;;5029730;28;20029;-81
2023/05/03 02:28:16;;;;;;;13.40;7.38;;;4.70;1.00;;;;;;5027957;28;20029;-81
2023/05/03 02:30:42;;;;;;;16.90;7.63;;;4.70;1.00;;;;;;5041222;28;20029;-81
2023/05/03 02:33:08;;;;;;;14.30;7.50;;;4.70;1.00;;;;;;5040825;28;20680;-81
2023/05/03 02:35:36;;;;;;;14.30;7.78;;;4.70;1.00;;;;;;5035980;28;20593;-81
2023/05/03 02:38:03;;;;;;;12.80;6.53;;;4.60;1.00;;;;;;5038744;28;20061;-81
2023/05/03 02:40:29;;;;;;;12.48;7.22;;;4.60;1.00;;;;;;5030738;28;20041;-81
2023/05/03 02:42:56;;;;;;;16.10;7.13;;;4.60;1.00;;;;;;5027007;28;20057;-81
2023/05/03 02:45:26;;;;;;;12.80;6.00;;;4.50;1.00;;;;;;5027286;28;20406;-81
2023/05/03 02:47:53;;;;;;;11.52;6.85;;;4.50;1.00;;;;;;5025325;28;20355;-81
2023/05/03 02:50:21;;;;;;;9.35;6.13;;;4.50;1.00;;;;;;5022505;28;20037;-81
2023/05/03 02:52:47;;;;;;;13.30;6.38;;;4.50;1.00;;;;;;5022896;28;20026;-84
2023/05/03 02:55:13;;;;;;;16.55;7.00;;;4.40;1.00;;;;;;5031739;28;20128;-82
2023/05/03 02:57:42;;;;;;;14.40;7.00;;;4.40;1.00;;;;;;5016034;28;20374;-82
2023/05/03 03:00:10;;;;;;;14.52;6.03;;;4.40;1.00;;;;;;5014341;28;20042;-81
2023/05/03 03:02:36;;;;;;;11.55;7.07;;;4.40;1.00;;;;;;5024961;28;20033;-82
2023/05/03 03:05:02;;;;;;;12.55;6.68;;;4.40;1.00;;;;;;5025512;28;20048;-81
2023/05/03 03:07:29;;;;;;;11.98;6.85;;;4.40;1.00;;;;;;5030146;28;20033;-81
2023/05/03 03:09:57;;;;;;;12.60;6.70;;;4.50;1.00;;;;;;5017062;28;20033;-81
2023/05/03 03:12:24;;;;;;;18.58;8.25;;;4.50;1.00;;;;;;5022536;28;20056;-81
2023/05/03 03:14:51;;;;;;;16.98;8.52;;;4.50;1.00;;;;;;5027707;28;20494;-81
2023/05/03 03:17:18;;;;;;;13.55;7.80;;;4.40;1.00;;;;;;5021866;28;20042;-81
2023/05/03 03:19:44;;;;;;;15.05;7.53;;;4.40;1.00;;;;;;5035194;28;20737;-81
2023/05/03 03:22:11;;;;;;;12.35;7.80;;;4.40;1.00;;;;;;5029467;28;20041;-81
2023/05/03 03:24:38;;;;;;;13.38;6.43;;;4.50;1.00;;;;;;5030296;28;20033;-82
2023/05/03 03:27:04;;;;;;;16.95;7.47;;;4.40;1.00;;;;;;5026629;28;20466;-81
2023/05/03 03:29:33;;;;;;;13.35;8.07;;;4.40;1.00;;;;;;5021861;28;20046;-81
2023/05/03 03:32:00;;;;;;;14.63;7.13;;;4.40;1.00;;;;;;5038051;28;20034;-82
2023/05/03 03:34:27;;;;;;;15.43;7.32;;;4.40;1.00;;;;;;5040846;28;20068;-82
2023/05/03 03:36:53;;;;;;;20.88;8.02;;;4.40;1.00;;;;;;5035766;28;20052;-82
2023/05/03 03:39:20;;;;;;;13.68;7.38;;;4.40;1.00;;;;;;5025225;28;20041;-81
2023/05/03 03:41:47;;;;;;;14.07;6.80;;;4.40;1.00;;;;;;5035396;28;20053;-82
2023/05/03 03:44:14;;;;;;;14.43;6.90;;;4.40;1.00;;;;;;5029138;28;20048;-82
2023/05/03 03:46:40;;;;;;;13.30;7.75;;;4.40;1.00;;;;;;5026703;28;20052;-83
2023/05/03 03:49:07;;;;;;;14.93;7.68;;;4.40;1.00;;;;;;5028320;28;20046;-84
2023/05/03 03:51:33;;;;;;;12.82;8.07;;;4.40;1.00;;;;;;5008843;28;20041;-82
2023/05/03 03:53:59;;;;;;;16.35;8.75;;;4.40;1.00;;;;;;5022094;28;20061;-83
2023/05/03 03:56:30;;;;;;;11.25;6.80;;;4.40;1.00;;;;;;5039323;28;20033;-82
2023/05/03 03:58:56;;;;;;;14.25;7.13;;;4.40;1.00;;;;;;5005555;28;20042;-82
2023/05/03 04:01:24;;;;;;;13.63;6.93;;;4.30;1.00;;;;;;5032990;28;20044;-82
2023/05/03 04:03:50;;;;;;;14.93;7.50;;;4.30;1.00;;;;;;5040353;28;20034;-82
2023/05/03 04:06:16;;;;;;;13.88;7.38;;;4.30;1.00;;;;;;5041456;28;20038;-82
2023/05/03 04:08:43;;;;;;;16.27;7.88;;;4.30;1.00;;;;;;5022749;28;20049;-82
2023/05/03 04:11:13;;;;;;;15.20;7.60;;;4.20;1.00;;;;;;5016516;28;20046;-82
2023/05/03 04:13:47;;;;;;;23.13;8.30;;;4.20;1.00;;;;;;5026892;28;20049;-82
2023/05/03 04:16:14;;;;;;;15.95;7.82;;;4.20;1.00;;;;;;5021724;28;20041;-80
2023/05/03 04:18:41;;;;;;;12.27;6.97;;;4.20;1.00;;;;;;5024897;28;20034;-81
2023/05/03 04:21:08;;;;;;;15.60;7.72;;;4.20;1.00;;;;;;5011399;28;20451;-81
2023/05/03 04:23:35;;;;;;;13.52;8.20;;;4.20;1.00;;;;;;5028889;28;20470;-81
2023/05/03 04:26:04;;;;;;;12.45;7.32;;;4.20;1.00;;;;;;5029871;28;20104;-82
2023/05/03 04:28:31;;;;;;;10.63;6.32;;;4.20;1.00;;;;;;5026698;28;20033;-81
2023/05/03 04:30:58;;;;;;;17.02;7.25;;;4.30;1.00;;;;;;5028160;28;20042;-81
2023/05/03 04:33:28;;;;;;;11.10;7.65;;;4.40;1.00;;;;;;5029830;28;20037;-81
2023/05/03 04:35:57;;;;;;;12.00;6.32;;;4.40;1.00;;;;;;5017345;28;20052;-81
2023/05/03 04:38:25;;;;;;;12.35;7.25;;;4.50;1.00;;;;;;5026804;28;20029;-82
2023/05/03 04:40:57;;;;;;;9.82;5.90;;;4.50;1.00;;;;;;5027974;28;20042;-81
2023/05/03 04:43:23;;;;;;;15.52;7.70;;;4.60;1.00;;;;;;5024108;28;20392;-82
2023/05/03 04:45:52;;;;;;;19.23;7.30;;;4.70;1.00;;;;;;5034650;28;20029;-83
2023/05/03 04:48:22;;;;;;;9.38;6.50;;;5.00;1.00;;;;;;5031622;28;20041;-83
2023/05/03 04:50:48;;;;;;;10.60;6.22;;;5.60;1.00;;;;;;5031889;28;20052;-82
2023/05/03 04:53:17;;;;;;;10.07;5.40;;;6.00;1.00;;;;;;5032271;28;20034;-83
2023/05/03 04:55:49;;;;;;;9.95;5.32;;;6.20;99.90;;;;;;5026665;28;20037;-82
2023/05/03 04:58:15;;;;;;;10.15;6.15;;;6.20;99.90;;;;;;5016912;28;20485;-81
2023/05/03 05:00:42;;;;;;;12.02;6.90;;;6.20;99.90;;;;;;5026456;28;20037;-81
2023/05/03 05:03:15;;;;;;;12.90;4.97;;;6.00;99.90;;;;;;5030765;28;20041;-82
2023/05/03 05:05:41;;;;;;;12.82;7.35;;;5.80;99.90;;;;;;5024885;28;20471;-82
2023/05/03 05:08:10;;;;;;;12.35;6.13;;;5.90;1.00;;;;;;5016270;28;20045;-85
2023/05/03 05:10:42;;;;;;;8.20;5.47;;;6.00;99.90;;;;;;5030252;28;20045;-84
2023/05/03 05:13:11;;;;;;;11.35;6.30;;;6.00;99.90;;;;;;5040675;28;20037;-83
2023/05/03 05:15:40;;;;;;;8.68;5.38;;;6.00;99.90;;;;;;5028888;28;20038;-87
2023/05/03 05:18:09;;;;;;;11.93;6.28;;;6.10;99.90;;;;;;5034057;28;20033;-85
2023/05/03 05:20:36;;;;;;;12.95;5.38;;;6.40;99.90;;;;;;5032506;28;20049;-88
2023/05/03 05:23:02;;;;;;;22.42;7.97;;;6.40;99.90;;;;;;5030313;28;20037;-85
2023/05/03 05:25:29;;;;;;;12.93;6.70;;;6.80;99.90;;;;;;5039702;28;20037;-83
2023/05/03 05:27:56;;;;;;;11.60;5.10;;;7.50;99.90;;;;;;5036264;28;20454;-86
2023/05/03 05:30:23;;;;;;;7.63;4.63;;;8.30;99.90;;;;;;5027012;28;20025;-89
2023/05/03 05:32:52;;;;;;;11.77;5.25;;;9.00;99.90;;;;;;5029842;28;20044;-87
2023/05/03 05:35:19;;;;;;;7.75;4.85;;;8.40;99.90;;;;;;5029782;28;20311;-88
2023/05/03 05:37:45;;;;;;;6.93;5.72;;;8.80;99.90;;;;;;5021777;28;20109;-91
2023/05/03 05:40:13;;;;;;;9.52;5.82;;;8.90;99.90;;;;;;5036760;28;20041;-88
2023/05/03 05:42:47;;;;;;;9.77;5.85;;;8.70;99.90;;;;;;5031439;28;20053;-75
2023/05/03 05:45:14;;;;;;;8.13;5.13;;;8.60;99.90;;;;;;5024792;28;20045;-87
2023/05/03 05:47:42;;;;;;;8.95;4.93;;;8.30;99.90;;;;;;5013998;28;20037;-90
2023/05/03 05:50:09;;;;;;;9.57;6.45;;;8.30;99.90;;;;;;5030006;28;20367;-85
2023/05/03 05:52:35;;;;;;;9.13;4.47;;;8.30;99.90;;;;;;5016528;28;20129;-87
2023/05/03 05:55:13;;;;;;;;;;;;;;;;;;;;;
2023/05/03 05:57:40;;;;;;;9.98;6.32;;;8.40;99.90;;;;;;5022173;28;20037;-87
2023/05/03 06:00:14;;;;;;;9.88;4.50;;;9.10;99.90;;;;;;5036256;28;20045;-91
2023/05/03 06:02:41;;;;;;;6.03;4.38;;;9.20;99.90;;;;;;5042909;28;20056;-88
2023/05/03 06:05:10;;;;;;;11.38;5.05;;;9.50;99.90;;;;;;5035763;28;20033;-88
2023/05/03 06:07:37;;;;;;;10.82;5.05;;;9.70;99.90;;;;;;5045244;28;20041;-90
2023/05/03 06:10:03;;;;;;;8.35;5.03;;;9.80;99.90;;;;;;5027194;28;20045;-87
2023/05/03 06:12:30;;;;;;;11.48;4.65;;;9.80;99.90;;;;;;5032642;28;20052;-90
2023/05/03 06:14:57;;;;;;;9.02;4.85;;;9.80;99.90;;;;;;5029750;28;20042;-85
2023/05/03 06:17:24;;;;;;;8.25;4.50;;;9.80;99.90;;;;;;5024557;28;20044;-84
2023/05/03 06:19:51;;;;;;;8.00;3.78;;;10.10;99.90;;;;;;5025268;28;20033;-84
2023/05/03 06:22:18;;;;;;;8.48;3.95;;;10.20;99.90;;;;;;5025963;28;20034;-84
2023/05/03 06:24:45;;;;;;;6.75;4.10;;;11.30;77.80;;;;;;5029006;28;20037;-85
2023/05/03 06:27:11;;;;;;;12.90;4.93;;;11.40;56.40;;;;;;5024531;28;20091;-83
2023/05/03 06:29:38;;;;;;;5.88;3.60;;;11.20;38.50;;;;;;5040555;28;20049;-85
2023/05/03 06:32:05;;;;;;;5.65;3.30;;;10.50;80.70;;;;;;5025479;28;20363;-84
2023/05/03 06:34:32;;;;;;;7.65;4.45;;;10.70;88.60;;;;;;5038510;28;20041;-85
2023/05/03 06:36:58;;;;;;;6.72;3.80;;;11.60;59.70;;;;;;5016918;28;20383;-85
2023/05/03 06:39:24;;;;;;;5.57;3.50;;;11.90;32.40;;;;;;5022301;28;20033;-83
2023/05/03 06:41:51;;;;;;;7.85;4.50;;;11.40;36.50;;;;;;5023706;28;20052;-85
2023/05/03 06:44:17;;;;;;;9.63;4.13;;;12.00;23.10;;;;;;5029877;28;20052;-85
2023/05/03 06:46:45;;;;;;;7.53;4.15;;;12.40;10.80;;;;;;5023345;28;20385;-84
2023/05/03 06:49:11;;;;;;;7.80;3.20;;;12.40;5.30;;;;;;5022675;28;20037;-85
2023/05/03 06:51:38;;;;;;;6.80;3.30;;;12.60;11.80;;;;;;5023310;28;20049;-83
2023/05/03 06:54:08;;;;;;;7.30;3.33;;;13.20;1.00;;;;;;5023024;28;20034;-85
2023/05/03 06:56:35;;;;;;;6.70;3.80;;;13.40;1.00;;;;;;5030395;28;20053;-89
2023/05/03 06:59:02;;;;;;;7.13;4.28;;;13.00;1.00;;;;;;5027589;28;20028;-83
2023/05/03 07:01:32;;;;;;;10.93;3.78;;;13.70;1.00;;;;;;5038935;28;20056;-85
2023/05/03 07:03:59;;;;;;;7.82;3.92;;;12.60;1.00;;;;;;5017993;28;20034;-85
2023/05/03 07:06:25;;;;;;;8.93;4.18;;;12.60;3.30;;;;;;5022541;28;20026;-83
2023/05/03 07:08:52;;;;;;;5.13;3.45;;;12.60;1.00;;;;;;5026541;28;20028;-86
2023/05/03 07:11:23;;;;;;;6.35;3.78;;;11.70;15.70;;;;;;5021445;28;20460;-84
2023/05/03 07:13:50;;;;;;;7.90;4.65;;;11.40;48.30;;;;;;5023595;28;20041;-83
2023/05/03 07:16:17;;;;;;;6.53;3.10;;;11.90;23.20;;;;;;5037578;28;20033;-83
2023/05/03 07:18:43;;;;;;;9.10;4.32;;;12.10;16.70;;;;;;5022084;28;20021;-83
2023/05/03 07:21:09;;;;;;;5.20;3.33;;;11.90;28.80;;;;;;5037747;28;20060;-82
2023/05/03 07:23:36;;;;;;;8.43;4.70;;;12.50;18.60;;;;;;5022437;28;20049;-87
2023/05/03 07:26:02;;;;;;;9.38;4.43;;;12.50;5.50;;;;;;5039551;28;20490;-82
2023/05/03 07:28:28;;;;;;;6.10;3.60;;;12.00;15.60;;;;;;5025478;28;20029;-81
2023/05/03 07:30:55;;;;;;;8.65;3.95;;;12.00;24.50;;;;;;5028850;28;20045;-83
2023/05/03 07:33:21;;;;;;;6.85;3.47;;;12.40;18.40;;;;;;5028832;28;20032;-83
2023/05/03 07:35:48;;;;;;;10.85;5.25;;;13.40;1.00;;;;;;5025511;28;20060;-84
2023/05/03 07:38:14;;;;;;;6.65;3.38;;;13.90;1.00;;;;;;5024591;28;20038;-88
2023/05/03 07:40:40;;;;;;;6.63;4.15;;;13.80;1.00;;;;;;5026026;28;20060;-85
2023/05/03 07:43:11;;;;;;;10.90;4.93;;;12.80;1.00;;;;;;5016414;28;20045;-84
2023/05/03 07:45:37;;;;;;;7.82;4.07;;;12.50;4.20;;;;;;5025187;28;20041;-84
2023/05/03 07:48:05;;;;;;;6.90;4.20;;;12.50;9.40;;;;;;5035066;28;20041;-83
2023/05/03 07:50:31;;;;;;;10.68;4.90;;;12.90;8.40;;;;;;5026253;28;20045;-85
2023/05/03 07:52:57;;;;;;;11.07;4.28;;;12.90;3.90;;;;;;5022553;28;20344;-82
2023/05/03 07:55:24;;;;;;;9.13;4.72;;;12.70;11.40;;;;;;5022050;28;20521;-82
2023/05/03 07:57:51;;;;;;;7.68;3.80;;;13.50;1.00;;;;;;5042050;28;20041;-84
2023/05/03 08:00:18;;;;;;;8.95;4.07;;;14.00;1.00;;;;;;5021570;28;20041;-86
2023/05/03 08:02:44;;;;;;;8.23;4.18;;;14.90;1.00;;;;;;5013982;28;20041;-83
2023/05/03 08:05:13;;;;;;;9.80;3.55;;;14.10;1.00;;;;;;5033831;28;20374;-84
2023/05/03 08:07:40;;;;;;;6.45;3.95;;;13.90;1.00;;;;;;5030275;28;20041;-83
2023/05/03 08:10:07;;;;;;;9.15;4.07;;;14.10;1.00;;;;;;5043969;28;20034;-78
2023/05/03 08:12:34;;;;;;;5.75;3.28;;;14.00;1.00;;;;;;5023866;28;20030;-78
2023/05/03 08:15:00;;;;;;;7.47;3.28;;;14.40;1.00;;;;;;5016105;28;20030;-80
2023/05/03 08:17:26;;;;;;;6.55;3.55;;;14.30;1.00;;;;;;5031955;28;20037;-80
2023/05/03 08:19:55;;;;;;;8.23;4.00;;;14.60;1.00;;;;;;5033424;28;20048;-79
2023/05/03 08:22:24;;;;;;;6.80;3.42;;;14.40;1.00;;;;;;5028831;28;20037;-81
2023/05/03 08:24:51;;;;;;;7.18;3.55;;;15.10;1.00;;;;;;5027196;28;20030;-81
2023/05/03 08:27:18;;;;;;;6.10;3.53;;;16.60;1.00;;;;;;5027450;28;20344;-79
2023/05/03 08:29:44;;;;;;;6.28;3.58;;;15.80;1.00;;;;;;5026485;28;20439;-79
2023/05/03 08:32:10;;;;;;;7.10;3.50;;;15.00;1.00;;;;;;5030105;28;20030;-78
2023/05/03 08:34:36;;;;;;;7.13;3.55;;;16.30;1.00;;;;;;5029312;28;20033;-79
2023/05/03 08:37:04;;;;;;;5.47;2.95;;;16.30;1.00;;;;;;5029639;28;20446;-80
2023/05/03 08:39:31;;;;;;;9.50;3.97;;;16.60;1.00;;;;;;5030581;28;20041;-77
2023/05/03 08:41:57;;;;;;;8.48;3.67;;;16.10;1.00;;;;;;5028874;28;20060;-77
2023/05/03 08:44:28;;;;;;;9.73;4.07;;;15.10;1.00;;;;;;5029581;28;20025;-80
2023/05/03 08:46:54;;;;;;;5.47;4.10;;;16.20;1.00;;;;;;5024844;28;20040;-77
2023/05/03 08:49:23;;;;;;;8.80;3.67;;;15.30;1.00;;;;;;5027865;28;20029;-78
2023/05/03 08:51:51;;;;;;;10.13;4.18;;;15.40;1.00;;;;;;5020878;28;20029;-79
2023/05/03 08:54:20;;;;;;;8.05;3.92;;;15.60;1.00;;;;;;5029505;28;20025;-79
2023/05/03 08:56:46;;;;;;;5.88;4.25;;;17.10;1.00;;;;;;5030652;28;20033;-78
2023/05/03 08:59:15;;;;;;;7.32;4.20;;;16.70;1.00;;;;;;5021072;28;20446;-78
2023/05/03 09:01:42;;;;;;;6.63;3.33;;;17.30;1.00;;;;;;5034391;28;20034;-77
2023/05/03 09:04:10;;;;;;;10.43;4.72;;;17.10;1.00;;;;;;5031969;28;20330;-78
2023/05/03 09:06:36;;;;;;;7.28;4.28;;;17.20;1.00;;;;;;5027743;28;20034;-75
2023/05/03 09:09:06;;;;;;;7.10;4.10;;;17.20;1.00;;;;;;5040056;28;20044;-78
2023/05/03 09:11:33;;;;;;;6.40;4.13;;;16.10;1.00;;;;;;5021719;28;20065;-78
2023/05/03 09:14:14;;;;;;;9.50;4.07;;;16.60;1.00;;;;;;5023934;28;20362;-79
2023/05/03 09:16:45;;;;;;;5.90;3.63;;;17.50;1.00;;;;;;5029584;28;20488;-79
2023/05/03 09:19:14;;;;;;;11.10;4.93;;;17.50;1.00;;;;;;5025199;28;20100;-78
2023/05/03 09:21:42;;;;;;;5.97;3.83;;;16.50;1.00;;;;;;5030757;28;20032;-79
2023/05/03 09:24:27;;;;;;;11.30;4.60;;;18.00;1.00;;;;;;5024731;28;20493;-78
2023/05/03 09:26:57;;;;;;;5.85;4.20;;;17.20;1.00;;;;;;5020551;28;20042;-78
2023/05/03 09:29:28;;;;;;;9.15;4.15;;;15.90;1.00;;;;;;5027632;28;20033;-78
2023/05/03 09:31:59;;;;;;;7.80;4.28;;;15.80;1.00;;;;;;5028905;28;20033;-79
2023/05/03 09:34:25;;;;;;;6.72;4.20;;;15.90;1.00;;;;;;5030815;28;20052;-79
2023/05/03 09:36:51;;;;;;;7.35;4.53;;;17.90;1.00;;;;;;5029601;28;20017;-79
2023/05/03 09:39:18;;;;;;;7.63;4.03;;;17.00;1.00;;;;;;5028974;28;20032;-78
2023/05/03 09:41:45;;;;;;;5.45;3.90;;;17.10;1.00;;;;;;5029410;28;20045;-78
2023/05/03 09:44:11;;;;;;;8.00;3.95;;;16.80;1.00;;;;;;5022734;28;20143;-78
2023/05/03 09:46:38;;;;;;;7.95;4.03;;;16.80;1.00;;;;;;5043424;28;20053;-79
2023/05/03 09:49:04;;;;;;;6.68;4.25;;;16.80;1.00;;;;;;5026501;28;20038;-79
2023/05/03 09:51:33;;;;;;;6.45;4.53;;;18.40;1.00;;;;;;5024575;28;20041;-78
2023/05/03 09:54:00;;;;;;;7.78;3.85;;;18.10;1.00;;;;;;5029831;28;20037;-80
2023/05/03 09:56:26;;;;;;;6.13;4.55;;;18.60;1.00;;;;;;5033416;28;20370;-79
2023/05/03 09:58:53;;;;;;;6.30;4.95;;;19.10;1.00;;;;;;5024834;28;20029;-79
2023/05/03 10:01:21;;;;;;;7.78;4.50;;;17.30;1.00;;;;;;5025481;28;20044;-79
2023/05/03 10:03:49;;;;;;;5.65;3.95;;;17.10;1.00;;;;;;5022942;28;20048;-78
2023/05/03 10:06:15;;;;;;;6.95;3.80;;;17.50;1.00;;;;;;5021837;28;20042;-79
2023/05/03 10:08:48;;;;;;;5.55;3.67;;;18.50;1.00;;;;;;5017375;28;20056;-78
2023/05/03 10:11:16;;;;;;;7.25;4.30;;;18.20;1.00;;;;;;5028348;28;20038;-76
2023/05/03 10:13:44;;;;;;;7.63;4.80;;;16.60;1.00;;;;;;5024904;28;20036;-78
2023/05/03 10:16:16;;;;;;;9.20;4.65;;;15.80;1.00;;;;;;5027869;28;20447;-78
2023/05/03 10:18:50;;;;;;;4.93;3.03;;;15.60;1.00;;;;;;5019645;28;20501;-77
2023/05/03 10:21:28;;;;;;;6.93;3.35;;;16.00;1.00;;;;;;5030938;28;20033;-77
2023/05/03 10:24:12;;;;;;;6.35;4.18;;;16.70;1.00;;;;;;5022748;28;20036;-78
2023/05/03 10:26:45;;;;;;;8.07;3.72;;;16.70;1.00;;;;;;5022817;28;20478;-77
2023/05/03 10:29:36;;;;;;;6.75;3.50;;;16.80;1.00;;;;;;5030444;28;20458;-78
2023/05/03 10:32:04;;;;;;;6.22;4.15;;;16.70;1.00;;;;;;5019085;28;20371;-76
2023/05/03 10:34:32;;;;;;;9.15;3.85;;;16.60;1.00;;;;;;5018774;28;20026;-77
2023/05/03 10:37:07;;;;;;;5.88;3.65;;;16.50;1.00;;;;;;5019751;28;20400;-78
2023/05/03 10:39:33;;;;;;;8.20;5.07;;;16.10;1.00;;;;;;5023291;28;20367;-76
2023/05/03 10:42:03;;;;;;;5.97;3.72;;;15.80;1.00;;;;;;5023845;28;20385;-75
2023/05/03 10:44:48;;;;;;;5.47;3.40;;;15.80;1.00;;;;;;5026019;28;20036;-75
2023/05/03 10:47:19;;;;;;;5.00;3.60;;;16.10;1.00;;;;;;5029467;28;20033;-76
2023/05/03 10:49:45;;;;;;;9.63;4.03;;;16.70;1.00;;;;;;5027156;28;20438;-76
2023/05/03 10:52:36;;;;;;;6.38;3.38;;;17.30;1.00;;;;;;5026351;28;20050;-75
2023/05/03 10:55:12;;;;;;;6.20;3.83;;;17.50;1.00;;;;;;5029147;28;20155;-76
2023/05/03 10:57:41;;;;;;;10.02;3.53;;;17.50;1.00;;;;;;5026318;28;20030;-76
2023/05/03 11:00:15;;;;;;;7.53;3.70;;;17.60;1.00;;;;;;5025119;28;20033;-76
2023/05/03 11:03:08;;;;;;;6.72;3.40;;;17.40;1.00;;;;;;5025206;28;20026;-75
2023/05/03 11:05:36;;;;;;;9.35;3.92;;;17.40;1.00;;;;;;5025618;28;20045;-77
2023/05/03 11:08:13;;;;;;;6.03;3.95;;;16.80;1.00;;;;;;5024239;28;20025;-77
2023/05/03 11:10:40;;;;;;;9.50;3.75;;;16.20;1.00;;;;;;5025031;28;20377;-76
2023/05/03 11:13:07;;;;;;;10.13;4.47;;;16.40;1.00;;;;;;5026015;28;20034;-76
2023/05/03 11:15:33;;;;;;;8.65;4.07;;;16.80;1.00;;;;;;5025649;28;20033;-74
2023/05/03 11:17:59;;;;;;;6.85;4.00;;;16.90;1.00;;;;;;5023087;28;20524;-75
2023/05/03 11:20:26;;;;;;;7.55;3.85;;;17.80;1.00;;;;;;5021049;28;20045;-75
2023/05/03 11:22:52;;;;;;;6.47;3.42;;;18.40;1.00;;;;;;5020740;28;20034;-76
2023/05/03 11:25:18;;;;;;;7.38;3.78;;;18.00;1.00;;;;;;5026110;28;20036;-75
2023/05/03 11:27:47;;;;;;;8.23;3.92;;;17.20;1.00;;;;;;5019872;28;20033;-76
2023/05/03 11:30:14;;;;;;;7.82;4.13;;;17.20;1.00;;;;;;5028295;28;20040;-75
2023/05/03 11:32:43;;;;;;;5.72;3.33;;;17.50;1.00;;;;;;5028120;28;20040;-74
2023/05/03 11:35:12;;;;;;;4.60;3.55;;;17.60;1.00;;;;;;5032780;28;20056;-76
2023/05/03 11:37:39;;;;;;;6.80;3.22;;;17.40;1.00;;;;;;5029852;28;20053;-77
2023/05/03 11:40:17;;;;;;;7.85;3.65;;;17.70;1.00;;;;;;5032868;28;20048;-77
2023/05/03 11:42:52;;;;;;;6.72;3.20;;;17.20;1.00;;;;;;5025661;28;20038;-78
2023/05/03 11:45:23;;;;;;;8.27;3.35;;;17.70;1.00;;;;;;5023255;28;20040;-75
2023/05/03 11:47:50;;;;;;;6.90;3.50;;;17.80;1.00;;;;;;5037414;28;20041;-75
2023/05/03 11:50:17;;;;;;;5.68;3.22;;;18.00;1.00;;;;;;5026197;28;20029;-76
2023/05/03 11:52:44;;;;;;;7.75;4.95;;;18.00;1.00;;;;;;5037310;28;20034;-79
2023/05/03 11:55:11;;;;;;;7.85;4.57;;;17.80;1.00;;;;;;5021467;28;20044;-78
2023/05/03 11:57:37;;;;;;;6.72;3.03;;;17.50;1.00;;;;;;5025679;28;20033;-79
2023/05/03 12:00:13;;;;;;;6.35;3.20;;;17.90;1.00;;;;;;5021445;28;20025;-79
2023/05/03 12:02:40;;;;;;;7.18;3.95;;;18.00;1.00;;;;;;5022866;28;20123;-79
2023/05/03 12:05:08;;;;;;;6.53;2.80;;;17.90;1.00;;;;;;5024958;28;20033;-79
2023/05/03 12:07:36;;;;;;;4.13;3.20;;;18.20;1.00;;;;;;5026537;28;20029;-78
2023/05/03 12:10:17;;;;;;;6.35;3.55;;;17.90;1.00;;;;;;5019207;28;20032;-80
2023/05/03 12:12:58;;;;;;;6.63;3.13;;;17.40;1.00;;;;;;5015461;28;20038;-79
2023/05/03 12:15:35;;;;;;;5.10;3.70;;;17.50;1.00;;;;;;5021907;28;20374;-79
2023/05/03 12:18:09;;;;;;;6.00;3.95;;;17.90;1.00;;;;;;5018456;28;20036;-81
2023/05/03 12:20:37;;;;;;;6.30;4.05;;;17.90;1.00;;;;;;5019300;28;20091;-78
2023/05/03 12:23:09;;;;;;;6.63;3.85;;;17.90;1.00;;;;;;5045998;28;20041;-78
2023/05/03 12:25:36;;;;;;;6.25;3.33;;;18.00;1.00;;;;;;5023101;28;20045;-79
2023/05/03 12:28:04;;;;;;;7.18;3.15;;;17.90;1.00;;;;;;5038052;28;20033;-80
2023/05/03 12:30:31;;;;;;;8.88;3.60;;;18.20;1.00;;;;;;5039443;28;20101;-79
2023/05/03 12:32:58;;;;;;;5.70;3.58;;;18.40;1.00;;;;;;5019042;28;20041;-80
2023/05/03 12:35:24;;;;;;;7.18;3.67;;;18.60;1.00;;;;;;5024540;28;20026;-79
2023/05/03 12:37:51;;;;;;;5.65;3.03;;;18.70;1.00;;;;;;5022387;28;20370;-80
2023/05/03 12:40:27;;;;;;;6.05;3.50;;;18.20;1.00;;;;;;5025375;28;20033;-82
2023/05/03 12:42:54;;;;;;;6.55;3.13;;;18.30;1.00;;;;;;5017129;28;20061;-78
2023/05/03 12:45:21;;;;;;;4.70;3.00;;;18.40;1.00;;;;;;5030685;28;20033;-79
2023/05/03 12:47:47;;;;;;;6.43;2.88;;;18.30;1.00;;;;;;5024339;28;20374;-81
2023/05/03 12:50:13;;;;;;;7.28;3.42;;;18.50;1.00;;;;;;5021033;28;20026;-78
2023/05/03 12:52:39;;;;;;;5.78;3.13;;;18.90;1.00;;;;;;5022802;28;20046;-80
2023/05/03 12:55:06;;;;;;;7.60;3.20;;;18.80;1.00;;;;;;5021196;28;20052;-80
2023/05/03 12:57:32;;;;;;;10.18;3.35;;;18.40;1.00;;;;;;5025592;28;20037;-79
2023/05/03 12:59:59;;;;;;;4.78;3.47;;;18.80;1.00;;;;;;5019409;28;20021;-79
2023/05/03 13:02:25;;;;;;;5.47;2.78;;;18.80;1.00;;;;;;5026174;28;20040;-80
2023/05/03 13:04:54;;;;;;;5.28;2.22;;;18.80;1.00;;;;;;5031265;28;20041;-80